North Battleford Airport
CYQW : now visible

Airfield :











YOU CAN JOIN US ON...

 
LOGIN :

Register | Disclaimer

   EN    FR    IT 

 









Legend :    VFR   Marginal VFR   IFR   Intensive IFR   Very Intensive IFR
Visi :
Ceiling :
>= 8 km
>= 3000ft
5 to 8 km
1000 to 3000 ft
1500m to 5 km
500 to 1000 ft
800 to 1500m
200 to 500 ft
< 800m
< 200 ft
Symbols :   Thunderstorms  Fog  Heavy snow  Heavy precipitations  Wind > 20 kt






- Airport Elevation : 1799 ft
- IATA code : YQW


CYQW - North Battleford

CURRENT METAR :
  • 240900Z AUTO 32005KT 9SM OVC050 M08/M12 A3043 RMK SLP344

EXPIRED METARs :
  • 240800Z AUTO 34004KT 9SM OVC050 M08/M13 A3042 RMK SLP341
  • 240700Z AUTO 33004KT 9SM OVC050 M08/M12 A3041 RMK SLP339

TAF TAF CYQW
Valid from the 24 at 06:00 until the 24 at 18:00 UTC


240538Z 2406/2418 32006KT P6SM OVC040
TEMPO 2406/2418 P6SM -SN RMK FCST BASED ON AUTO OBS. NXT FCST BY 241200Z
CZWG FIR / North America



MET'MAP, your aeronautical weather chart ! - Copyright ORBIFLY December 2007 - Disclaimer

ORBIFLY MET'MAP TEAM :

Programming & Development : Alexandra Zaïnal
Concept & original design : Baudouin d'Aumeries
Assistance for programming : Marc-Olivier Méhu
Technical & hardware support : Manuel Goepfert

Contact : metmap@orbifly.com




SOURCES & CREDITS :

   NOAA       Earth
Advisory